sensor_id;sensor_type;location;lat;lon;timestamp;temperature;humidity
13591;DHT22;6866;50.778;7.206;2022-07-03T00:01:29;20.70;53.80
13591;DHT22;6866;50.778;7.206;2022-07-03T00:03:54;20.50;54.40
13591;DHT22;6866;50.778;7.206;2022-07-03T00:06:20;20.50;54.30
13591;DHT22;6866;50.778;7.206;2022-07-03T00:08:46;20.50;54.40
13591;DHT22;6866;50.778;7.206;2022-07-03T00:11:12;20.50;54.40
13591;DHT22;6866;50.778;7.206;2022-07-03T00:13:38;20.50;54.60
13591;DHT22;6866;50.778;7.206;2022-07-03T00:16:04;20.40;54.80
13591;DHT22;6866;50.778;7.206;2022-07-03T00:18:29;20.40;55.10
13591;DHT22;6866;50.778;7.206;2022-07-03T00:21:00;20.40;54.70
13591;DHT22;6866;50.778;7.206;2022-07-03T00:23:28;20.30;55.10
13591;DHT22;6866;50.778;7.206;2022-07-03T00:25:54;20.40;55.00
13591;DHT22;6866;50.778;7.206;2022-07-03T00:28:20;20.40;54.80
13591;DHT22;6866;50.778;7.206;2022-07-03T00:30:48;20.30;55.10
13591;DHT22;6866;50.778;7.206;2022-07-03T00:33:14;20.10;56.70
13591;DHT22;6866;50.778;7.206;2022-07-03T00:35:42;20.00;57.20
13591;DHT22;6866;50.778;7.206;2022-07-03T00:38:10;19.80;58.30
13591;DHT22;6866;50.778;7.206;2022-07-03T00:40:37;19.50;59.30
13591;DHT22;6866;50.778;7.206;2022-07-03T00:43:03;19.50;59.40
13591;DHT22;6866;50.778;7.206;2022-07-03T00:45:33;19.50;59.80
13591;DHT22;6866;50.778;7.206;2022-07-03T00:47:59;19.40;59.90
13591;DHT22;6866;50.778;7.206;2022-07-03T00:50:33;19.40;60.40
13591;DHT22;6866;50.778;7.206;2022-07-03T00:53:01;19.30;61.00
13591;DHT22;6866;50.778;7.206;2022-07-03T00:55:28;19.20;61.00
13591;DHT22;6866;50.778;7.206;2022-07-03T00:57:55;19.10;61.60
13591;DHT22;6866;50.778;7.206;2022-07-03T01:05:37;19.00;61.80
13591;DHT22;6866;50.778;7.206;2022-07-03T01:08:11;19.10;62.00
13591;DHT22;6866;50.778;7.206;2022-07-03T01:18:49;18.90;63.10
13591;DHT22;6866;50.778;7.206;2022-07-03T01:26:50;18.50;64.70
13591;DHT22;6866;50.778;7.206;2022-07-03T01:29:30;18.20;65.60
13591;DHT22;6866;50.778;7.206;2022-07-03T01:31:58;18.20;65.70
13591;DHT22;6866;50.778;7.206;2022-07-03T01:34:30;18.10;65.80
13591;DHT22;6866;50.778;7.206;2022-07-03T01:37:00;18.00;66.50
13591;DHT22;6866;50.778;7.206;2022-07-03T01:39:26;17.80;68.00
13591;DHT22;6866;50.778;7.206;2022-07-03T01:41:53;17.90;67.50
13591;DHT22;6866;50.778;7.206;2022-07-03T01:44:22;18.10;66.80
13591;DHT22;6866;50.778;7.206;2022-07-03T01:46:50;18.10;67.30
13591;DHT22;6866;50.778;7.206;2022-07-03T01:49:18;18.10;67.20
13591;DHT22;6866;50.778;7.206;2022-07-03T01:51:45;18.00;67.90
13591;DHT22;6866;50.778;7.206;2022-07-03T01:54:14;17.90;68.40
13591;DHT22;6866;50.778;7.206;2022-07-03T01:56:39;18.00;68.10
13591;DHT22;6866;50.778;7.206;2022-07-03T01:59:05;17.90;68.60
13591;DHT22;6866;50.778;7.206;2022-07-03T02:01:56;18.00;68.20
13591;DHT22;6866;50.778;7.206;2022-07-03T02:04:32;17.70;69.30
13591;DHT22;6866;50.778;7.206;2022-07-03T02:07:11;17.60;69.90
13591;DHT22;6866;50.778;7.206;2022-07-03T02:09:46;17.40;70.00
13591;DHT22;6866;50.778;7.206;2022-07-03T02:12:14;17.30;70.80
13591;DHT22;6866;50.778;7.206;2022-07-03T02:14:52;17.50;70.20
13591;DHT22;6866;50.778;7.206;2022-07-03T02:17:22;17.40;70.10
13591;DHT22;6866;50.778;7.206;2022-07-03T02:20:04;17.40;69.60
13591;DHT22;6866;50.778;7.206;2022-07-03T02:22:35;17.40;70.00
13591;DHT22;6866;50.778;7.206;2022-07-03T02:25:11;17.50;70.00
13591;DHT22;6866;50.778;7.206;2022-07-03T02:27:43;17.40;69.40
13591;DHT22;6866;50.778;7.206;2022-07-03T02:30:12;17.20;70.20
13591;DHT22;6866;50.778;7.206;2022-07-03T02:32:44;17.30;69.70
13591;DHT22;6866;50.778;7.206;2022-07-03T02:35:18;17.00;70.90
13591;DHT22;6866;50.778;7.206;2022-07-03T02:40:39;17.20;70.60
13591;DHT22;6866;50.778;7.206;2022-07-03T02:46:14;17.10;70.30
13591;DHT22;6866;50.778;7.206;2022-07-03T02:54:46;16.70;72.00
13591;DHT22;6866;50.778;7.206;2022-07-03T02:57:16;16.90;71.10
13591;DHT22;6866;50.778;7.206;2022-07-03T02:59:56;16.90;70.90
13591;DHT22;6866;50.778;7.206;2022-07-03T03:05:15;16.80;70.80
13591;DHT22;6866;50.778;7.206;2022-07-03T03:10:45;16.90;71.10
13591;DHT22;6866;50.778;7.206;2022-07-03T03:13:13;16.90;71.00
13591;DHT22;6866;50.778;7.206;2022-07-03T03:16:15;16.90;71.60
13591;DHT22;6866;50.778;7.206;2022-07-03T03:18:40;16.90;71.40
13591;DHT22;6866;50.778;7.206;2022-07-03T03:21:11;16.90;71.30
13591;DHT22;6866;50.778;7.206;2022-07-03T03:23:44;16.90;71.40
13591;DHT22;6866;50.778;7.206;2022-07-03T03:26:12;16.90;71.30
13591;DHT22;6866;50.778;7.206;2022-07-03T03:28:39;16.90;71.40
13591;DHT22;6866;50.778;7.206;2022-07-03T03:31:06;16.80;71.80
13591;DHT22;6866;50.778;7.206;2022-07-03T03:33:40;16.70;72.00
13591;DHT22;6866;50.778;7.206;2022-07-03T03:36:08;16.70;71.70
13591;DHT22;6866;50.778;7.206;2022-07-03T03:38:34;16.80;71.70
13591;DHT22;6866;50.778;7.206;2022-07-03T03:41:02;16.80;71.70
13591;DHT22;6866;50.778;7.206;2022-07-03T03:43:28;16.80;71.50
13591;DHT22;6866;50.778;7.206;2022-07-03T03:45:53;16.70;71.70
13591;DHT22;6866;50.778;7.206;2022-07-03T03:48:19;16.60;72.50
13591;DHT22;6866;50.778;7.206;2022-07-03T03:50:45;16.60;72.00
13591;DHT22;6866;50.778;7.206;2022-07-03T03:53:12;16.60;72.10
13591;DHT22;6866;50.778;7.206;2022-07-03T03:55:37;16.70;72.00
13591;DHT22;6866;50.778;7.206;2022-07-03T03:58:03;16.50;72.50
13591;DHT22;6866;50.778;7.206;2022-07-03T04:00:30;16.50;73.80
13591;DHT22;6866;50.778;7.206;2022-07-03T04:02:56;16.40;73.00
13591;DHT22;6866;50.778;7.206;2022-07-03T04:05:21;16.20;73.90
13591;DHT22;6866;50.778;7.206;2022-07-03T04:07:47;16.30;73.90
13591;DHT22;6866;50.778;7.206;2022-07-03T04:10:12;16.50;72.50
13591;DHT22;6866;50.778;7.206;2022-07-03T04:12:38;16.60;72.60
13591;DHT22;6866;50.778;7.206;2022-07-03T04:15:03;16.50;72.80
13591;DHT22;6866;50.778;7.206;2022-07-03T04:17:29;16.40;72.50
13591;DHT22;6866;50.778;7.206;2022-07-03T04:19:55;16.60;72.40
13591;DHT22;6866;50.778;7.206;2022-07-03T04:22:20;16.70;72.00
13591;DHT22;6866;50.778;7.206;2022-07-03T04:24:46;16.40;73.20
13591;DHT22;6866;50.778;7.206;2022-07-03T04:27:12;16.40;73.60
13591;DHT22;6866;50.778;7.206;2022-07-03T04:29:37;16.50;73.20
13591;DHT22;6866;50.778;7.206;2022-07-03T04:32:03;16.50;73.40
13591;DHT22;6866;50.778;7.206;2022-07-03T04:34:29;16.40;73.70
13591;DHT22;6866;50.778;7.206;2022-07-03T04:36:54;16.30;74.20
13591;DHT22;6866;50.778;7.206;2022-07-03T04:39:20;16.30;74.10
13591;DHT22;6866;50.778;7.206;2022-07-03T04:41:45;16.30;74.00
13591;DHT22;6866;50.778;7.206;2022-07-03T04:44:11;16.40;74.10
13591;DHT22;6866;50.778;7.206;2022-07-03T04:46:36;16.40;73.70
13591;DHT22;6866;50.778;7.206;2022-07-03T04:49:02;16.50;73.70
13591;DHT22;6866;50.778;7.206;2022-07-03T04:51:28;16.70;73.10
13591;DHT22;6866;50.778;7.206;2022-07-03T04:53:53;17.00;72.20
13591;DHT22;6866;50.778;7.206;2022-07-03T04:56:19;17.10;71.60
13591;DHT22;6866;50.778;7.206;2022-07-03T04:58:45;17.10;71.30
13591;DHT22;6866;50.778;7.206;2022-07-03T05:01:11;17.10;71.40
13591;DHT22;6866;50.778;7.206;2022-07-03T05:03:36;17.10;71.60
13591;DHT22;6866;50.778;7.206;2022-07-03T05:06:02;17.30;71.20
13591;DHT22;6866;50.778;7.206;2022-07-03T05:08:28;17.40;70.70
13591;DHT22;6866;50.778;7.206;2022-07-03T05:10:53;17.40;70.10
13591;DHT22;6866;50.778;7.206;2022-07-03T05:13:19;17.80;69.30
13591;DHT22;6866;50.778;7.206;2022-07-03T05:15:44;18.30;67.40
13591;DHT22;6866;50.778;7.206;2022-07-03T05:18:10;18.40;66.90
13591;DHT22;6866;50.778;7.206;2022-07-03T05:20:35;18.50;67.00
13591;DHT22;6866;50.778;7.206;2022-07-03T05:23:02;21.40;60.20
13591;DHT22;6866;50.778;7.206;2022-07-03T05:25:29;23.60;54.90
13591;DHT22;6866;50.778;7.206;2022-07-03T05:27:55;22.80;52.60
13591;DHT22;6866;50.778;7.206;2022-07-03T05:30:22;22.90;53.70
13591;DHT22;6866;50.778;7.206;2022-07-03T05:32:48;23.60;50.70
13591;DHT22;6866;50.778;7.206;2022-07-03T05:35:13;22.90;52.50
13591;DHT22;6866;50.778;7.206;2022-07-03T05:37:39;22.00;54.60
13591;DHT22;6866;50.778;7.206;2022-07-03T05:40:05;22.20;55.50
13591;DHT22;6866;50.778;7.206;2022-07-03T05:42:31;25.10;48.80
13591;DHT22;6866;50.778;7.206;2022-07-03T05:44:56;26.20;45.20
13591;DHT22;6866;50.778;7.206;2022-07-03T05:47:22;26.00;45.30
13591;DHT22;6866;50.778;7.206;2022-07-03T05:49:47;27.90;42.00
13591;DHT22;6866;50.778;7.206;2022-07-03T05:52:13;28.50;40.20
13591;DHT22;6866;50.778;7.206;2022-07-03T05:54:39;29.70;37.50
13591;DHT22;6866;50.778;7.206;2022-07-03T05:57:05;29.90;37.10
13591;DHT22;6866;50.778;7.206;2022-07-03T05:59:30;29.40;37.10
13591;DHT22;6866;50.778;7.206;2022-07-03T06:01:56;28.20;36.60
13591;DHT22;6866;50.778;7.206;2022-07-03T06:04:21;25.70;42.90
13591;DHT22;6866;50.778;7.206;2022-07-03T06:06:47;25.70;44.00
13591;DHT22;6866;50.778;7.206;2022-07-03T06:09:12;28.60;40.00
13591;DHT22;6866;50.778;7.206;2022-07-03T06:11:38;29.70;37.20
13591;DHT22;6866;50.778;7.206;2022-07-03T06:14:03;30.00;36.10
13591;DHT22;6866;50.778;7.206;2022-07-03T06:16:29;31.00;34.70
13591;DHT22;6866;50.778;7.206;2022-07-03T06:18:55;30.20;34.10
13591;DHT22;6866;50.778;7.206;2022-07-03T06:21:20;30.70;34.70
13591;DHT22;6866;50.778;7.206;2022-07-03T06:23:46;31.20;33.60
13591;DHT22;6866;50.778;7.206;2022-07-03T06:26:12;31.60;32.50
13591;DHT22;6866;50.778;7.206;2022-07-03T06:28:38;31.90;32.50
13591;DHT22;6866;50.778;7.206;2022-07-03T06:31:03;32.10;32.00
13591;DHT22;6866;50.778;7.206;2022-07-03T06:33:29;31.40;32.30
13591;DHT22;6866;50.778;7.206;2022-07-03T06:35:54;31.40;32.70
13591;DHT22;6866;50.778;7.206;2022-07-03T06:38:20;32.60;31.60
13591;DHT22;6866;50.778;7.206;2022-07-03T06:40:45;31.70;31.60
13591;DHT22;6866;50.778;7.206;2022-07-03T06:43:11;31.50;32.50
13591;DHT22;6866;50.778;7.206;2022-07-03T06:45:36;32.50;31.20
13591;DHT22;6866;50.778;7.206;2022-07-03T06:48:02;32.70;30.20
13591;DHT22;6866;50.778;7.206;2022-07-03T06:50:27;32.50;30.70
13591;DHT22;6866;50.778;7.206;2022-07-03T06:52:53;32.60;30.00
13591;DHT22;6866;50.778;7.206;2022-07-03T06:55:18;31.60;30.00
13591;DHT22;6866;50.778;7.206;2022-07-03T06:57:44;31.90;31.10
13591;DHT22;6866;50.778;7.206;2022-07-03T07:00:10;32.90;29.40
13591;DHT22;6866;50.778;7.206;2022-07-03T07:02:36;33.20;29.10
13591;DHT22;6866;50.778;7.206;2022-07-03T07:05:01;32.40;30.20
13591;DHT22;6866;50.778;7.206;2022-07-03T07:07:27;32.80;29.40
13591;DHT22;6866;50.778;7.206;2022-07-03T07:09:52;33.90;29.40
13591;DHT22;6866;50.778;7.206;2022-07-03T07:12:18;33.80;28.50
13591;DHT22;6866;50.778;7.206;2022-07-03T07:14:44;34.00;28.60
13591;DHT22;6866;50.778;7.206;2022-07-03T07:17:09;33.40;28.70
13591;DHT22;6866;50.778;7.206;2022-07-03T07:19:35;34.00;28.20
13591;DHT22;6866;50.778;7.206;2022-07-03T07:22:00;33.80;28.20
13591;DHT22;6866;50.778;7.206;2022-07-03T07:24:27;33.80;28.50
13591;DHT22;6866;50.778;7.206;2022-07-03T07:26:53;33.50;29.00
13591;DHT22;6866;50.778;7.206;2022-07-03T07:29:19;33.90;28.40
13591;DHT22;6866;50.778;7.206;2022-07-03T07:31:44;33.20;28.60
13591;DHT22;6866;50.778;7.206;2022-07-03T07:34:10;34.00;27.80
13591;DHT22;6866;50.778;7.206;2022-07-03T07:36:36;33.80;28.00
13591;DHT22;6866;50.778;7.206;2022-07-03T07:39:01;33.90;28.30
13591;DHT22;6866;50.778;7.206;2022-07-03T07:41:27;33.40;28.40
13591;DHT22;6866;50.778;7.206;2022-07-03T07:43:52;33.50;27.70
13591;DHT22;6866;50.778;7.206;2022-07-03T07:46:18;33.80;28.10
13591;DHT22;6866;50.778;7.206;2022-07-03T07:48:43;34.10;27.60
13591;DHT22;6866;50.778;7.206;2022-07-03T07:51:10;34.10;26.90
13591;DHT22;6866;50.778;7.206;2022-07-03T07:53:36;34.50;26.80
13591;DHT22;6866;50.778;7.206;2022-07-03T07:56:01;34.60;26.10
13591;DHT22;6866;50.778;7.206;2022-07-03T07:58:27;34.50;26.80
13591;DHT22;6866;50.778;7.206;2022-07-03T08:00:52;33.80;27.10
13591;DHT22;6866;50.778;7.206;2022-07-03T08:03:37;34.20;26.70
13591;DHT22;6866;50.778;7.206;2022-07-03T08:06:21;33.40;27.20
13591;DHT22;6866;50.778;7.206;2022-07-03T08:08:46;34.30;26.90
13591;DHT22;6866;50.778;7.206;2022-07-03T08:11:12;34.10;26.00
13591;DHT22;6866;50.778;7.206;2022-07-03T08:13:37;33.30;27.40
13591;DHT22;6866;50.778;7.206;2022-07-03T08:16:03;33.00;27.60
13591;DHT22;6866;50.778;7.206;2022-07-03T08:18:29;33.20;27.50
13591;DHT22;6866;50.778;7.206;2022-07-03T08:20:54;33.70;27.50
13591;DHT22;6866;50.778;7.206;2022-07-03T08:23:20;34.10;26.30
13591;DHT22;6866;50.778;7.206;2022-07-03T08:25:45;34.30;26.50
13591;DHT22;6866;50.778;7.206;2022-07-03T08:28:11;33.80;27.10
13591;DHT22;6866;50.778;7.206;2022-07-03T08:30:37;33.60;26.40
13591;DHT22;6866;50.778;7.206;2022-07-03T08:33:02;32.90;27.70
13591;DHT22;6866;50.778;7.206;2022-07-03T08:35:28;33.10;28.60
13591;DHT22;6866;50.778;7.206;2022-07-03T08:37:54;33.20;28.10
13591;DHT22;6866;50.778;7.206;2022-07-03T08:40:20;34.00;26.70
13591;DHT22;6866;50.778;7.206;2022-07-03T08:42:56;33.10;27.40
13591;DHT22;6866;50.778;7.206;2022-07-03T08:45:23;34.20;26.90
13591;DHT22;6866;50.778;7.206;2022-07-03T08:47:50;34.50;26.20
13591;DHT22;6866;50.778;7.206;2022-07-03T08:50:18;33.20;27.30
13591;DHT22;6866;50.778;7.206;2022-07-03T08:52:45;33.30;27.20
13591;DHT22;6866;50.778;7.206;2022-07-03T08:55:12;32.90;26.80
13591;DHT22;6866;50.778;7.206;2022-07-03T08:57:40;32.70;27.50
13591;DHT22;6866;50.778;7.206;2022-07-03T09:00:08;32.90;27.40
13591;DHT22;6866;50.778;7.206;2022-07-03T09:02:34;33.30;27.40
13591;DHT22;6866;50.778;7.206;2022-07-03T09:05:00;33.60;27.20
13591;DHT22;6866;50.778;7.206;2022-07-03T09:07:28;33.60;27.00
13591;DHT22;6866;50.778;7.206;2022-07-03T09:09:56;33.70;27.30
13591;DHT22;6866;50.778;7.206;2022-07-03T09:12:22;33.40;27.50
13591;DHT22;6866;50.778;7.206;2022-07-03T09:14:48;33.10;28.30
13591;DHT22;6866;50.778;7.206;2022-07-03T09:17:14;32.90;28.50
13591;DHT22;6866;50.778;7.206;2022-07-03T09:19:42;32.90;27.80
13591;DHT22;6866;50.778;7.206;2022-07-03T09:24:46;31.80;28.90
13591;DHT22;6866;50.778;7.206;2022-07-03T09:27:16;31.30;29.70
13591;DHT22;6866;50.778;7.206;2022-07-03T09:29:50;31.30;29.50
13591;DHT22;6866;50.778;7.206;2022-07-03T09:32:15;31.90;30.10
13591;DHT22;6866;50.778;7.206;2022-07-03T09:34:41;32.00;29.00
13591;DHT22;6866;50.778;7.206;2022-07-03T09:37:06;32.20;29.00
13591;DHT22;6866;50.778;7.206;2022-07-03T09:39:32;32.30;28.60
13591;DHT22;6866;50.778;7.206;2022-07-03T09:42:04;32.20;29.20
13591;DHT22;6866;50.778;7.206;2022-07-03T09:49:58;30.90;30.00
13591;DHT22;6866;50.778;7.206;2022-07-03T09:52:31;31.10;30.60
13591;DHT22;6866;50.778;7.206;2022-07-03T09:54:58;31.40;31.30
13591;DHT22;6866;50.778;7.206;2022-07-03T09:57:23;31.70;30.40
13591;DHT22;6866;50.778;7.206;2022-07-03T10:00:14;31.20;29.80
13591;DHT22;6866;50.778;7.206;2022-07-03T10:05:32;31.40;30.20
13591;DHT22;6866;50.778;7.206;2022-07-03T10:10:29;31.80;29.60
13591;DHT22;6866;50.778;7.206;2022-07-03T10:12:56;31.70;30.30
13591;DHT22;6866;50.778;7.206;2022-07-03T10:15:22;31.10;29.00
13591;DHT22;6866;50.778;7.206;2022-07-03T10:17:50;30.40;30.20
13591;DHT22;6866;50.778;7.206;2022-07-03T10:20:27;30.80;30.90
13591;DHT22;6866;50.778;7.206;2022-07-03T10:22:53;31.30;30.60
13591;DHT22;6866;50.778;7.206;2022-07-03T10:25:20;30.70;30.00
13591;DHT22;6866;50.778;7.206;2022-07-03T10:27:46;30.50;31.30
13591;DHT22;6866;50.778;7.206;2022-07-03T10:30:15;30.80;32.40
13591;DHT22;6866;50.778;7.206;2022-07-03T10:32:44;30.80;30.90
13591;DHT22;6866;50.778;7.206;2022-07-03T10:35:11;31.10;30.60
13591;DHT22;6866;50.778;7.206;2022-07-03T10:37:57;30.80;31.60
13591;DHT22;6866;50.778;7.206;2022-07-03T10:43:30;31.00;30.90
13591;DHT22;6866;50.778;7.206;2022-07-03T10:46:17;31.30;30.00
13591;DHT22;6866;50.778;7.206;2022-07-03T10:51:19;30.50;30.70
13591;DHT22;6866;50.778;7.206;2022-07-03T10:53:44;31.10;30.30
13591;DHT22;6866;50.778;7.206;2022-07-03T10:56:10;31.10;30.70
13591;DHT22;6866;50.778;7.206;2022-07-03T11:01:30;31.10;28.80
13591;DHT22;6866;50.778;7.206;2022-07-03T11:04:02;31.10;29.50
13591;DHT22;6866;50.778;7.206;2022-07-03T11:09:22;31.70;28.80
13591;DHT22;6866;50.778;7.206;2022-07-03T11:11:48;31.70;29.30
13591;DHT22;6866;50.778;7.206;2022-07-03T11:14:21;31.40;30.30
13591;DHT22;6866;50.778;7.206;2022-07-03T11:16:47;31.60;30.80
13591;DHT22;6866;50.778;7.206;2022-07-03T11:19:12;31.30;29.90
13591;DHT22;6866;50.778;7.206;2022-07-03T11:21:42;31.70;29.90
13591;DHT22;6866;50.778;7.206;2022-07-03T11:24:24;31.70;29.50
13591;DHT22;6866;50.778;7.206;2022-07-03T11:27:14;31.70;29.80
13591;DHT22;6866;50.778;7.206;2022-07-03T11:29:48;31.30;28.60
13591;DHT22;6866;50.778;7.206;2022-07-03T11:32:43;31.10;29.00
13591;DHT22;6866;50.778;7.206;2022-07-03T11:35:42;31.00;29.30
13591;DHT22;6866;50.778;7.206;2022-07-03T11:38:08;31.10;29.00
13591;DHT22;6866;50.778;7.206;2022-07-03T11:40:36;30.90;29.20
13591;DHT22;6866;50.778;7.206;2022-07-03T11:43:05;30.90;29.40
13591;DHT22;6866;50.778;7.206;2022-07-03T11:45:31;30.80;29.70
13591;DHT22;6866;50.778;7.206;2022-07-03T11:47:57;30.70;30.10
13591;DHT22;6866;50.778;7.206;2022-07-03T11:50:40;31.20;30.10
13591;DHT22;6866;50.778;7.206;2022-07-03T11:53:23;31.50;29.00
13591;DHT22;6866;50.778;7.206;2022-07-03T11:55:53;31.50;28.50
13591;DHT22;6866;50.778;7.206;2022-07-03T11:58:19;31.70;28.20
13591;DHT22;6866;50.778;7.206;2022-07-03T12:00:45;31.50;29.70
13591;DHT22;6866;50.778;7.206;2022-07-03T12:03:15;30.40;29.00
13591;DHT22;6866;50.778;7.206;2022-07-03T12:05:57;30.30;30.00
13591;DHT22;6866;50.778;7.206;2022-07-03T12:08:28;29.90;31.00
13591;DHT22;6866;50.778;7.206;2022-07-03T12:11:00;29.80;31.10
13591;DHT22;6866;50.778;7.206;2022-07-03T12:13:26;30.20;32.20
13591;DHT22;6866;50.778;7.206;2022-07-03T12:15:51;30.70;31.00
13591;DHT22;6866;50.778;7.206;2022-07-03T12:18:18;31.10;29.30
13591;DHT22;6866;50.778;7.206;2022-07-03T12:20:44;31.10;29.80
13591;DHT22;6866;50.778;7.206;2022-07-03T12:23:09;31.40;29.70
13591;DHT22;6866;50.778;7.206;2022-07-03T12:25:41;31.50;28.80
13591;DHT22;6866;50.778;7.206;2022-07-03T12:28:09;31.50;29.40
13591;DHT22;6866;50.778;7.206;2022-07-03T12:30:35;30.40;29.20
13591;DHT22;6866;50.778;7.206;2022-07-03T12:33:01;31.30;30.20
13591;DHT22;6866;50.778;7.206;2022-07-03T12:35:28;31.60;28.50
13591;DHT22;6866;50.778;7.206;2022-07-03T12:37:54;31.80;28.70
13591;DHT22;6866;50.778;7.206;2022-07-03T12:40:19;31.70;28.80
13591;DHT22;6866;50.778;7.206;2022-07-03T12:42:50;31.10;29.60
13591;DHT22;6866;50.778;7.206;2022-07-03T12:45:17;30.50;30.00
13591;DHT22;6866;50.778;7.206;2022-07-03T12:47:44;29.90;30.60
13591;DHT22;6866;50.778;7.206;2022-07-03T12:50:10;30.20;30.40
13591;DHT22;6866;50.778;7.206;2022-07-03T12:52:57;30.80;30.50
13591;DHT22;6866;50.778;7.206;2022-07-03T12:55:28;30.80;29.20
13591;DHT22;6866;50.778;7.206;2022-07-03T12:58:11;30.70;29.30
13591;DHT22;6866;50.778;7.206;2022-07-03T13:00:56;31.00;29.50
13591;DHT22;6866;50.778;7.206;2022-07-03T13:03:29;31.20;29.00
13591;DHT22;6866;50.778;7.206;2022-07-03T13:05:56;31.20;29.80
13591;DHT22;6866;50.778;7.206;2022-07-03T13:08:22;31.60;28.60
13591;DHT22;6866;50.778;7.206;2022-07-03T13:10:58;31.40;29.10
13591;DHT22;6866;50.778;7.206;2022-07-03T13:13:24;31.20;28.70
13591;DHT22;6866;50.778;7.206;2022-07-03T13:15:50;31.20;29.50
13591;DHT22;6866;50.778;7.206;2022-07-03T13:18:15;31.10;29.40
13591;DHT22;6866;50.778;7.206;2022-07-03T13:20:41;31.10;28.70
13591;DHT22;6866;50.778;7.206;2022-07-03T13:23:07;30.70;30.00
13591;DHT22;6866;50.778;7.206;2022-07-03T13:25:35;30.40;32.10
13591;DHT22;6866;50.778;7.206;2022-07-03T13:28:11;29.90;31.20
13591;DHT22;6866;50.778;7.206;2022-07-03T13:30:39;29.70;31.90
13591;DHT22;6866;50.778;7.206;2022-07-03T13:33:06;29.40;32.20
13591;DHT22;6866;50.778;7.206;2022-07-03T13:35:32;29.80;32.50
13591;DHT22;6866;50.778;7.206;2022-07-03T13:37:58;30.00;33.00
13591;DHT22;6866;50.778;7.206;2022-07-03T13:40:23;30.20;31.90
13591;DHT22;6866;50.778;7.206;2022-07-03T13:42:49;30.20;31.60
13591;DHT22;6866;50.778;7.206;2022-07-03T13:45:15;29.90;31.80
13591;DHT22;6866;50.778;7.206;2022-07-03T13:47:40;29.80;32.50
13591;DHT22;6866;50.778;7.206;2022-07-03T13:50:06;29.80;32.90
13591;DHT22;6866;50.778;7.206;2022-07-03T13:52:32;30.00;32.50
13591;DHT22;6866;50.778;7.206;2022-07-03T13:54:57;30.30;32.10
13591;DHT22;6866;50.778;7.206;2022-07-03T13:57:23;30.40;31.80
13591;DHT22;6866;50.778;7.206;2022-07-03T13:59:48;30.60;31.90
13591;DHT22;6866;50.778;7.206;2022-07-03T14:02:15;30.50;31.90
13591;DHT22;6866;50.778;7.206;2022-07-03T14:04:40;30.60;31.80
13591;DHT22;6866;50.778;7.206;2022-07-03T14:07:06;30.60;31.00
13591;DHT22;6866;50.778;7.206;2022-07-03T14:09:32;30.50;31.30
13591;DHT22;6866;50.778;7.206;2022-07-03T14:11:58;30.50;31.90
13591;DHT22;6866;50.778;7.206;2022-07-03T14:14:24;30.10;31.40
13591;DHT22;6866;50.778;7.206;2022-07-03T14:16:50;30.00;32.20
13591;DHT22;6866;50.778;7.206;2022-07-03T14:19:15;30.00;32.10
13591;DHT22;6866;50.778;7.206;2022-07-03T14:21:41;29.80;32.60
13591;DHT22;6866;50.778;7.206;2022-07-03T14:24:06;30.10;32.00
13591;DHT22;6866;50.778;7.206;2022-07-03T14:26:32;29.90;32.50
13591;DHT22;6866;50.778;7.206;2022-07-03T14:29:16;29.80;32.70
13591;DHT22;6866;50.778;7.206;2022-07-03T14:32:00;29.80;32.30
13591;DHT22;6866;50.778;7.206;2022-07-03T14:34:44;29.80;32.60
13591;DHT22;6866;50.778;7.206;2022-07-03T14:37:10;29.60;32.70
13591;DHT22;6866;50.778;7.206;2022-07-03T14:39:35;29.60;32.80
13591;DHT22;6866;50.778;7.206;2022-07-03T14:42:02;29.50;32.80
13591;DHT22;6866;50.778;7.206;2022-07-03T14:44:28;29.20;32.80
13591;DHT22;6866;50.778;7.206;2022-07-03T14:46:55;29.00;33.80
13591;DHT22;6866;50.778;7.206;2022-07-03T14:49:21;28.90;33.80
13591;DHT22;6866;50.778;7.206;2022-07-03T14:51:46;29.10;33.90
13591;DHT22;6866;50.778;7.206;2022-07-03T14:54:17;29.20;33.50
13591;DHT22;6866;50.778;7.206;2022-07-03T14:56:52;29.00;33.30
13591;DHT22;6866;50.778;7.206;2022-07-03T14:59:27;29.10;33.50
13591;DHT22;6866;50.778;7.206;2022-07-03T15:01:56;29.00;33.30
13591;DHT22;6866;50.778;7.206;2022-07-03T15:04:40;28.70;33.50
13591;DHT22;6866;50.778;7.206;2022-07-03T15:07:11;28.60;34.70
13591;DHT22;6866;50.778;7.206;2022-07-03T15:09:39;28.80;34.70
13591;DHT22;6866;50.778;7.206;2022-07-03T15:12:10;29.10;34.30
13591;DHT22;6866;50.778;7.206;2022-07-03T15:14:53;29.10;33.60
13591;DHT22;6866;50.778;7.206;2022-07-03T15:17:20;28.90;34.10
13591;DHT22;6866;50.778;7.206;2022-07-03T15:19:47;28.60;34.20
13591;DHT22;6866;50.778;7.206;2022-07-03T15:22:14;28.70;34.60
13591;DHT22;6866;50.778;7.206;2022-07-03T15:24:41;28.60;34.70
13591;DHT22;6866;50.778;7.206;2022-07-03T15:27:07;28.60;34.40
13591;DHT22;6866;50.778;7.206;2022-07-03T15:29:35;28.60;34.70
13591;DHT22;6866;50.778;7.206;2022-07-03T15:32:03;28.80;34.20
13591;DHT22;6866;50.778;7.206;2022-07-03T15:34:29;28.70;34.40
13591;DHT22;6866;50.778;7.206;2022-07-03T15:37:28;28.60;34.30
13591;DHT22;6866;50.778;7.206;2022-07-03T15:40:09;28.30;35.20
13591;DHT22;6866;50.778;7.206;2022-07-03T15:45:38;28.00;35.80
13591;DHT22;6866;50.778;7.206;2022-07-03T15:48:28;28.00;35.50
13591;DHT22;6866;50.778;7.206;2022-07-03T15:51:21;27.90;36.10
13591;DHT22;6866;50.778;7.206;2022-07-03T15:53:55;27.70;36.00
13591;DHT22;6866;50.778;7.206;2022-07-03T15:56:25;27.50;36.90
13591;DHT22;6866;50.778;7.206;2022-07-03T15:58:58;27.50;37.10
13591;DHT22;6866;50.778;7.206;2022-07-03T16:01:28;27.20;37.20
13591;DHT22;6866;50.778;7.206;2022-07-03T16:04:53;27.10;37.70
13591;DHT22;6866;50.778;7.206;2022-07-03T16:07:24;27.50;37.50
13591;DHT22;6866;50.778;7.206;2022-07-03T16:09:52;27.40;36.90
13591;DHT22;6866;50.778;7.206;2022-07-03T16:12:17;27.50;37.00
13591;DHT22;6866;50.778;7.206;2022-07-03T16:14:50;27.90;36.40
13591;DHT22;6866;50.778;7.206;2022-07-03T16:17:17;28.00;36.40
13591;DHT22;6866;50.778;7.206;2022-07-03T16:19:47;27.70;36.40
13591;DHT22;6866;50.778;7.206;2022-07-03T16:22:13;27.50;36.70
13591;DHT22;6866;50.778;7.206;2022-07-03T16:24:41;27.20;36.60
13591;DHT22;6866;50.778;7.206;2022-07-03T16:27:06;27.10;36.70
13591;DHT22;6866;50.778;7.206;2022-07-03T16:29:36;27.40;36.70
13591;DHT22;6866;50.778;7.206;2022-07-03T16:32:02;27.80;35.90
13591;DHT22;6866;50.778;7.206;2022-07-03T16:34:54;27.80;35.80
13591;DHT22;6866;50.778;7.206;2022-07-03T16:40:07;27.70;35.90
13591;DHT22;6866;50.778;7.206;2022-07-03T16:42:35;27.60;36.20
13591;DHT22;6866;50.778;7.206;2022-07-03T16:45:11;27.70;35.50
13591;DHT22;6866;50.778;7.206;2022-07-03T16:47:39;27.70;35.70
13591;DHT22;6866;50.778;7.206;2022-07-03T16:50:07;27.80;36.10
13591;DHT22;6866;50.778;7.206;2022-07-03T16:52:34;27.80;36.00
13591;DHT22;6866;50.778;7.206;2022-07-03T16:55:03;27.70;35.40
13591;DHT22;6866;50.778;7.206;2022-07-03T16:57:29;27.60;36.40
13591;DHT22;6866;50.778;7.206;2022-07-03T16:59:55;27.60;36.30
13591;DHT22;6866;50.778;7.206;2022-07-03T17:02:21;27.60;36.30